createdAt,value
2022-10-29T00:02:05.614Z,98815.31
2022-10-29T00:04:35.310Z,98816.91
2022-10-29T00:07:04.250Z,98819.09
2022-10-29T00:09:35.650Z,98815.84
2022-10-29T00:12:06.062Z,98823.72
2022-10-29T00:14:36.263Z,98819.84
2022-10-29T00:17:04.822Z,98827.59
2022-10-29T00:19:34.759Z,98819.28
2022-10-29T00:22:07.453Z,98827.81
2022-10-29T00:24:41.397Z,98828.78
2022-10-29T00:27:24.654Z,98828.88
2022-10-29T00:29:54.772Z,98835.78
2022-10-29T00:32:23.656Z,98833.69
2022-10-29T00:34:52.381Z,98839.31
2022-10-29T00:37:21.314Z,98830.88
2022-10-29T00:39:53.226Z,98834.97
2022-10-29T00:42:25.535Z,98829.09
2022-10-29T00:44:54.289Z,98830.88
2022-10-29T00:47:27.584Z,98831.59
2022-10-29T00:50:06.912Z,98821.47
2022-10-29T00:52:46.070Z,98822.13
2022-10-29T00:55:18.010Z,98818.66
2022-10-29T00:57:54.372Z,98813.13
2022-10-29T01:00:23.860Z,98814.59
2022-10-29T01:02:53.371Z,98813.97
2022-10-29T01:05:27.085Z,98803.47
2022-10-29T01:07:57.436Z,98803.81
2022-10-29T01:10:44.936Z,98813.88
2022-10-29T01:13:50.001Z,98804.66
2022-10-29T01:16:32.884Z,98801.31
2022-10-29T01:19:15.415Z,98798.50
2022-10-29T01:21:47.174Z,98805.19
2022-10-29T01:25:00.658Z,98804.72
2022-10-29T01:28:08.739Z,98800.03
2022-10-29T01:31:10.007Z,98792.78
2022-10-29T01:33:49.635Z,98795.78
2022-10-29T01:36:30.697Z,98804.47
2022-10-29T01:39:09.120Z,98788.38
2022-10-29T01:41:54.048Z,98788.19
2022-10-29T01:44:35.002Z,98786.72
2022-10-29T01:47:16.000Z,98792.34
2022-10-29T01:49:49.923Z,98791.16
2022-10-29T01:52:25.652Z,98792.78
2022-10-29T01:54:54.606Z,98792.69
2022-10-29T01:57:36.805Z,98795.97
2022-10-29T02:00:12.139Z,98787.91
2022-10-29T02:03:03.688Z,98788.72
2022-10-29T02:05:43.529Z,98784.31
2022-10-29T02:08:27.750Z,98783.47
2022-10-29T02:11:05.671Z,98791.53
2022-10-29T02:13:42.072Z,98787.19
2022-10-29T02:16:19.485Z,98793.44
2022-10-29T02:18:51.218Z,98802.75
2022-10-29T02:21:22.253Z,98798.94
2022-10-29T02:23:58.995Z,98792.91
2022-10-29T02:26:29.771Z,98792.69
2022-10-29T02:29:02.831Z,98785.81
2022-10-29T02:31:32.024Z,98787.00
2022-10-29T02:34:04.476Z,98789.81
2022-10-29T02:36:33.902Z,98786.19
2022-10-29T02:39:05.787Z,98768.63
2022-10-29T02:41:38.224Z,98774.53
2022-10-29T02:44:11.213Z,98779.78
2022-10-29T02:46:41.987Z,98780.94
2022-10-29T02:49:13.193Z,98772.69
2022-10-29T02:51:42.015Z,98774.34
2022-10-29T02:54:14.319Z,98775.00
2022-10-29T02:56:43.951Z,98769.09
2022-10-29T02:59:12.537Z,98765.19
2022-10-29T03:01:43.629Z,98767.19
2022-10-29T03:04:16.266Z,98771.78
2022-10-29T03:06:44.910Z,98765.56
2022-10-29T03:09:17.270Z,98774.09
2022-10-29T03:11:46.463Z,98764.56
2022-10-29T03:14:16.479Z,98765.19
2022-10-29T03:16:45.105Z,98760.97
2022-10-29T03:19:15.865Z,98758.34
2022-10-29T03:21:44.937Z,98753.88
2022-10-29T03:24:15.085Z,98754.72
2022-10-29T03:26:44.059Z,98752.72
2022-10-29T03:29:19.494Z,98755.53
2022-10-29T03:31:54.332Z,98760.78
2022-10-29T03:34:24.994Z,98747.50
2022-10-29T03:36:53.549Z,98747.13
2022-10-29T03:39:25.414Z,98742.69
2022-10-29T03:41:55.042Z,98747.13
2022-10-29T03:44:26.738Z,98751.56
2022-10-29T03:46:55.285Z,98756.19
2022-10-29T03:49:28.937Z,98743.50
2022-10-29T03:52:00.580Z,98750.00
2022-10-29T03:54:32.097Z,98749.19
2022-10-29T03:57:00.880Z,98739.50
2022-10-29T03:59:33.532Z,98740.31
2022-10-29T04:02:02.306Z,98746.56
2022-10-29T04:04:32.414Z,98736.88
2022-10-29T04:07:01.959Z,98739.34
2022-10-29T04:09:31.175Z,98742.56
2022-10-29T04:12:03.188Z,98742.56
2022-10-29T04:14:34.425Z,98739.13
2022-10-29T04:17:03.102Z,98744.38
2022-10-29T04:19:36.611Z,98739.13
2022-10-29T04:28:42.063Z,98743.22
2022-10-29T04:30:41.788Z,98738.78
2022-10-29T04:33:12.314Z,98741.41
2022-10-29T04:35:45.093Z,98742.41
2022-10-29T04:38:15.797Z,98742.78
2022-10-29T04:40:48.542Z,98741.13
2022-10-29T04:43:19.885Z,98740.78
2022-10-29T04:45:55.762Z,98745.19
2022-10-29T04:48:29.184Z,98741.59
2022-10-29T04:50:59.246Z,98731.91
2022-10-29T04:53:30.686Z,98740.78
2022-10-29T04:56:05.676Z,98744.38
2022-10-29T04:58:43.258Z,98736.72
2022-10-29T05:01:13.677Z,98736.88
2022-10-29T05:03:42.893Z,98736.44
2022-10-29T05:06:15.666Z,98735.63
2022-10-29T05:08:47.052Z,98729.28
2022-10-29T05:11:15.555Z,98730.09
2022-10-29T05:13:45.319Z,98723.22
2022-10-29T05:16:16.161Z,98731.75
2022-10-29T05:18:46.018Z,98733.09
2022-10-29T05:21:17.768Z,98732.44
2022-10-29T05:23:47.506Z,98722.78
2022-10-29T05:26:17.189Z,98725.59
2022-10-29T05:28:46.490Z,98729.56
2022-10-29T05:31:16.715Z,98730.84
2022-10-29T05:33:55.481Z,98725.59
2022-10-29T05:36:33.684Z,98729.38
2022-10-29T05:39:03.710Z,98732.81
2022-10-29T05:41:35.576Z,98729.38
2022-10-29T05:44:06.830Z,98728.59
2022-10-29T05:46:36.838Z,98724.31
2022-10-29T05:49:07.281Z,98732.19
2022-10-29T05:51:38.628Z,98733.84
2022-10-29T05:54:09.006Z,98736.09
2022-10-29T05:56:37.558Z,98738.72
2022-10-29T05:59:06.507Z,98736.09
2022-10-29T06:01:40.303Z,98734.91
2022-10-29T06:04:11.342Z,98741.78
2022-10-29T06:06:42.247Z,98738.34
2022-10-29T06:09:11.411Z,98750.28
2022-10-29T06:11:41.374Z,98741.78
2022-10-29T06:14:13.193Z,98754.72
2022-10-29T06:16:45.238Z,98748.47
2022-10-29T06:19:19.499Z,98746.66
2022-10-29T06:21:52.514Z,98735.34
2022-10-29T06:24:26.581Z,98738.59
2022-10-29T06:26:56.920Z,98736.34
2022-10-29T06:29:25.502Z,98745.84
2022-10-29T06:31:55.722Z,98749.66
2022-10-29T06:34:24.515Z,98743.22
2022-10-29T06:36:59.753Z,98747.50
2022-10-29T06:39:28.737Z,98741.06
2022-10-29T06:41:57.300Z,98749.09
2022-10-29T06:44:28.710Z,98741.06
2022-10-29T06:46:58.677Z,98734.00
2022-10-29T06:49:27.247Z,98735.81
2022-10-29T06:51:57.294Z,98746.13
2022-10-29T06:54:27.049Z,98745.75
2022-10-29T06:56:56.036Z,98743.75
2022-10-29T06:59:28.172Z,98743.59
2022-10-29T07:01:57.044Z,98752.91
2022-10-29T07:04:39.849Z,98750.06
2022-10-29T07:07:09.900Z,98754.16
2022-10-29T07:09:42.947Z,98751.19
2022-10-29T07:12:18.366Z,98751.78
2022-10-29T07:14:46.966Z,98758.69
2022-10-29T07:17:16.311Z,98761.31
2022-10-29T07:19:45.636Z,98759.31
2022-10-29T07:22:15.963Z,98758.31
2022-10-29T07:24:44.441Z,98770.25
2022-10-29T07:27:14.473Z,98764.81
2022-10-29T07:29:44.711Z,98762.81
2022-10-29T07:32:13.260Z,98761.66
2022-10-29T07:34:44.699Z,98754.56
2022-10-29T07:37:15.666Z,98763.09
2022-10-29T07:39:45.173Z,98771.59
2022-10-29T07:42:14.407Z,98762.56
2022-10-29T07:44:43.013Z,98771.88
2022-10-29T07:47:11.441Z,98774.94
2022-10-29T07:49:40.589Z,98761.44
2022-10-29T07:52:11.821Z,98770.75
2022-10-29T07:54:43.763Z,98772.22
2022-10-29T07:57:12.384Z,98768.41
2022-10-29T07:59:42.424Z,98769.03
2022-10-29T08:02:13.852Z,98768.50
2022-10-29T08:04:42.936Z,98772.41
2022-10-29T08:07:11.990Z,98775.47
2022-10-29T08:09:46.350Z,98771.47
2022-10-29T08:12:15.168Z,98771.09
2022-10-29T08:14:45.591Z,98773.97
2022-10-29T08:17:14.120Z,98772.81
2022-10-29T08:19:42.589Z,98774.84
2022-10-29T08:22:11.607Z,98784.97
2022-10-29T08:24:42.141Z,98773.09
2022-10-29T08:27:17.248Z,98777.00
2022-10-29T08:29:47.612Z,98784.31
2022-10-29T08:32:16.353Z,98771.63
2022-10-29T08:34:45.198Z,98768.63
2022-10-29T08:37:14.325Z,98767.25
2022-10-29T08:39:45.784Z,98769.50
2022-10-29T08:42:34.779Z,98770.75
2022-10-29T08:45:25.874Z,98761.44
2022-10-29T08:48:29.731Z,98766.97
2022-10-29T08:51:11.524Z,98776.91
2022-10-29T08:53:54.200Z,98768.44
2022-10-29T08:56:44.011Z,98769.53
2022-10-29T08:59:18.297Z,98770.78
2022-10-29T09:01:48.934Z,98771.19
2022-10-29T09:04:33.107Z,98774.06
2022-10-29T09:07:28.676Z,98775.91
2022-10-29T09:10:05.508Z,98765.44
2022-10-29T09:13:05.680Z,98763.88
2022-10-29T09:16:02.301Z,98761.09
2022-10-29T09:18:54.246Z,98763.59
2022-10-29T09:21:35.865Z,98756.38
2022-10-29T09:24:15.711Z,98754.38
2022-10-29T09:26:59.923Z,98755.22
2022-10-29T09:29:57.445Z,98756.69
2022-10-29T09:32:34.877Z,98757.31
2022-10-29T09:35:13.908Z,98760.63
2022-10-29T09:37:54.748Z,98741.97
2022-10-29T09:40:35.159Z,98740.81
2022-10-29T09:43:21.122Z,98742.25
2022-10-29T09:46:09.485Z,98733.34
2022-10-29T09:48:54.510Z,98727.09
2022-10-29T09:51:38.260Z,98727.50
2022-10-29T09:54:09.485Z,98731.00
2022-10-29T09:56:41.669Z,98724.91
2022-10-29T09:59:28.312Z,98722.06
2022-10-29T10:02:04.316Z,98721.06
2022-10-29T10:04:42.773Z,98716.38
2022-10-29T10:07:19.067Z,98709.69
2022-10-29T10:10:00.462Z,98702.59
2022-10-29T10:12:45.178Z,98699.34
2022-10-29T10:15:34.053Z,98696.44
2022-10-29T10:18:07.514Z,98691.38
2022-10-29T10:20:45.653Z,98690.78
2022-10-29T10:23:27.206Z,98690.13
2022-10-29T10:26:02.335Z,98681.19
2022-10-29T10:28:35.614Z,98678.53
2022-10-29T10:31:16.265Z,98682.38
2022-10-29T10:33:56.916Z,98674.66
2022-10-29T10:36:35.650Z,98671.16
2022-10-29T10:39:10.630Z,98670.56
2022-10-29T10:41:46.618Z,98664.06
2022-10-29T10:44:16.298Z,98661.00
2022-10-29T10:46:49.014Z,98653.06
2022-10-29T10:49:30.370Z,98660.38
2022-10-29T10:52:03.274Z,98656.91
2022-10-29T10:54:38.915Z,98650.59
2022-10-29T10:57:25.948Z,98651.41
2022-10-29T11:00:08.693Z,98653.03
2022-10-29T11:02:53.778Z,98646.50
2022-10-29T11:05:30.197Z,98642.84
2022-10-29T11:08:10.116Z,98638.16
2022-10-29T11:10:49.984Z,98641.63
2022-10-29T11:13:23.908Z,98629.84
2022-10-29T11:16:04.033Z,98637.53
2022-10-29T11:18:41.271Z,98627.78
2022-10-29T11:21:20.537Z,98637.91
2022-10-29T11:24:03.236Z,98614.13
2022-10-29T11:26:41.888Z,98617.16
2022-10-29T11:29:26.397Z,98616.75
2022-10-29T11:32:03.533Z,98605.75
2022-10-29T11:34:48.831Z,98609.00
2022-10-29T11:37:30.730Z,98613.63
2022-10-29T11:40:05.471Z,98619.50
2022-10-29T11:42:34.063Z,98610.56
2022-10-29T11:45:03.051Z,98604.03
2022-10-29T11:48:10.609Z,98597.50
2022-10-29T11:50:54.311Z,98597.88
2022-10-29T11:53:56.781Z,98596.63
2022-10-29T11:56:48.708Z,98597.84
2022-10-29T11:59:36.392Z,98591.28
2022-10-29T12:02:33.785Z,98585.59
2022-10-29T12:05:15.389Z,98583.34
2022-10-29T12:08:10.104Z,98582.28
2022-10-29T12:10:58.236Z,98583.47
2022-10-29T12:13:43.420Z,98585.69
2022-10-29T12:16:28.758Z,98578.94
2022-10-29T12:19:14.294Z,98566.69
2022-10-29T12:21:53.781Z,98576.41
2022-10-29T12:24:46.154Z,98571.50
2022-10-29T12:27:30.358Z,98567.41
2022-10-29T12:30:05.683Z,98564.91
2022-10-29T12:32:50.091Z,98560.00
2022-10-29T12:35:30.787Z,98555.66
2022-10-29T12:38:26.220Z,98560.28
2022-10-29T12:41:04.851Z,98563.91
2022-10-29T12:43:40.882Z,98556.09
2022-10-29T12:46:26.880Z,98558.66
2022-10-29T12:49:12.289Z,98549.84
2022-10-29T12:51:52.910Z,98548.16
2022-10-29T12:54:40.241Z,98548.06
2022-10-29T12:57:30.861Z,98547.41
2022-10-29T13:00:47.903Z,98549.16
2022-10-29T13:04:03.986Z,98546.63
2022-10-29T13:07:02.052Z,98544.34
2022-10-29T13:09:34.222Z,98536.19
2022-10-29T13:12:10.392Z,98536.75
2022-10-29T13:14:44.078Z,98536.91
2022-10-29T13:17:33.269Z,98531.16
2022-10-29T13:20:07.612Z,98528.66
2022-10-29T13:22:57.330Z,98527.41
2022-10-29T13:25:51.701Z,98523.28
2022-10-29T13:28:53.199Z,98519.38
2022-10-29T13:31:50.537Z,98519.28
2022-10-29T13:34:59.610Z,98517.78
2022-10-29T13:38:17.403Z,98521.59
2022-10-29T13:41:17.171Z,98520.13
2022-10-29T13:44:00.175Z,98522.31
2022-10-29T13:47:01.179Z,98514.72
2022-10-29T13:49:36.308Z,98508.34
2022-10-29T13:52:18.902Z,98516.31
2022-10-29T13:54:52.100Z,98507.13
2022-10-29T13:57:27.400Z,98507.13
2022-10-29T14:00:04.080Z,98509.16
2022-10-29T14:02:52.480Z,98503.88
2022-10-29T14:05:28.919Z,98501.56
2022-10-29T14:08:13.115Z,98502.63
2022-10-29T14:10:53.129Z,98494.06
2022-10-29T14:13:33.261Z,98499.38
2022-10-29T14:16:10.741Z,98501.47
2022-10-29T14:18:43.076Z,98495.56
2022-10-29T14:21:20.886Z,98488.69
2022-10-29T14:24:12.071Z,98503.41
2022-10-29T14:26:44.598Z,98504.44
2022-10-29T14:29:25.602Z,98508.09
2022-10-29T14:32:08.920Z,98500.88
2022-10-29T14:34:40.688Z,98503.72
2022-10-29T14:37:19.529Z,98505.22
2022-10-29T14:39:58.248Z,98499.09
2022-10-29T14:42:34.525Z,98498.06
2022-10-29T14:45:11.129Z,98493.81
2022-10-29T14:47:40.270Z,98494.84
2022-10-29T14:50:20.207Z,98489.56
2022-10-29T14:52:54.285Z,98487.94
2022-10-29T14:58:26.418Z,98492.22
2022-10-29T15:00:59.069Z,98494.03
2022-10-29T15:03:36.349Z,98483.09
2022-10-29T15:06:18.715Z,98488.59
2022-10-29T15:08:57.886Z,98482.75
2022-10-29T15:11:39.155Z,98489.06
2022-10-29T15:16:56.450Z,98487.91
2022-10-29T15:19:25.432Z,98481.44
2022-10-29T15:21:54.097Z,98482.47
2022-10-29T15:24:27.105Z,98487.16
2022-10-29T15:27:07.436Z,98486.03
2022-10-29T15:29:43.478Z,98488.88
2022-10-29T15:32:21.649Z,98487.50
2022-10-29T15:34:55.567Z,98489.56
2022-10-29T15:37:42.612Z,98488.97
2022-10-29T15:40:20.958Z,98484.13
2022-10-29T15:43:00.891Z,98484.59
2022-10-29T15:45:29.944Z,98482.81
2022-10-29T15:48:30.545Z,98479.25
2022-10-29T15:51:00.119Z,98476.69
2022-10-29T15:56:15.310Z,98479.63
2022-10-29T15:58:45.299Z,98493.09
2022-10-29T16:01:18.687Z,98483.19
2022-10-29T16:03:50.504Z,98487.09
2022-10-29T16:06:20.449Z,98492.22
2022-10-29T16:08:59.609Z,98479.44
2022-10-29T16:11:28.806Z,98481.72
2022-10-29T16:14:00.618Z,98481.38
2022-10-29T16:16:32.778Z,98477.78
2022-10-29T16:19:03.376Z,98481.06
2022-10-29T16:21:32.545Z,98468.50
2022-10-29T16:24:00.962Z,98472.19
2022-10-29T16:26:30.464Z,98473.63
2022-10-29T16:29:01.724Z,98471.44
2022-10-29T16:31:31.677Z,98467.16
2022-10-29T16:34:06.070Z,98473.09
2022-10-29T16:36:34.608Z,98472.75
2022-10-29T16:39:05.459Z,98478.72
2022-10-29T16:41:37.257Z,98474.06
2022-10-29T16:44:08.340Z,98473.69
2022-10-29T16:46:37.931Z,98478.25
2022-10-29T16:49:07.399Z,98484.41
2022-10-29T16:51:36.297Z,98480.78
2022-10-29T16:54:04.936Z,98475.75
2022-10-29T16:56:33.389Z,98471.09
2022-10-29T16:59:02.362Z,98475.63
2022-10-29T17:01:33.794Z,98476.06
2022-10-29T17:04:05.238Z,98476.13
2022-10-29T17:06:35.419Z,98477.78
2022-10-29T17:09:09.441Z,98478.44
2022-10-29T17:11:41.556Z,98477.91
2022-10-29T17:14:10.665Z,98481.41
2022-10-29T17:16:40.530Z,98479.63
2022-10-29T17:19:13.014Z,98480.44
2022-10-29T17:21:41.629Z,98480.44
2022-10-29T17:24:12.645Z,98486.56
2022-10-29T17:26:42.687Z,98489.66
2022-10-29T17:29:12.330Z,98491.13
2022-10-29T17:31:44.366Z,98491.19
2022-10-29T17:34:15.563Z,98491.22
2022-10-29T17:36:44.753Z,98491.66
2022-10-29T17:39:16.150Z,98486.78
2022-10-29T17:41:45.316Z,98490.47
2022-10-29T17:44:14.337Z,98492.34
2022-10-29T17:46:46.573Z,98491.16
2022-10-29T17:49:16.367Z,98507.00
2022-10-29T17:51:44.879Z,98498.69
2022-10-29T17:54:22.300Z,98498.06
2022-10-29T17:56:51.526Z,98505.19
2022-10-29T17:59:21.531Z,98498.09
2022-10-29T18:01:51.491Z,98498.34
2022-10-29T18:04:21.243Z,98502.63
2022-10-29T18:06:51.080Z,98505.66
2022-10-29T18:09:21.216Z,98506.09
2022-10-29T18:11:52.414Z,98508.94
2022-10-29T18:14:20.951Z,98509.13
2022-10-29T18:16:51.020Z,98514.59
2022-10-29T18:19:21.055Z,98515.22
2022-10-29T18:21:49.516Z,98523.13
2022-10-29T18:24:19.415Z,98515.03
2022-10-29T18:26:52.110Z,98515.22
2022-10-29T18:29:20.805Z,98514.84
2022-10-29T18:31:51.197Z,98521.13
2022-10-29T18:34:19.655Z,98523.38
2022-10-29T18:36:49.127Z,98516.47
2022-10-29T18:39:18.159Z,98516.28
2022-10-29T18:41:46.818Z,98507.78
2022-10-29T18:44:15.356Z,98518.09
2022-10-29T18:46:43.887Z,98524.00
2022-10-29T18:49:14.567Z,98517.69
2022-10-29T18:51:43.351Z,98518.72
2022-10-29T18:54:13.081Z,98526.00
2022-10-29T18:56:43.976Z,98522.56
2022-10-29T18:59:13.446Z,98520.97
2022-10-29T19:01:42.253Z,98521.97
2022-10-29T19:04:16.219Z,98525.59
2022-10-29T19:06:45.257Z,98531.47
2022-10-29T19:09:14.077Z,98526.00
2022-10-29T19:11:42.771Z,98521.16
2022-10-29T19:14:15.409Z,98532.09
2022-10-29T19:16:44.011Z,98530.25
2022-10-29T19:19:17.249Z,98526.41
2022-10-29T19:21:48.562Z,98530.84
2022-10-29T19:24:17.571Z,98529.84
2022-10-29T19:26:46.539Z,98528.22
2022-10-29T19:29:16.132Z,98524.19
2022-10-29T19:31:47.671Z,98520.50
2022-10-29T19:34:18.075Z,98518.09
2022-10-29T19:36:46.740Z,98514.25
2022-10-29T19:39:15.370Z,98520.69
2022-10-29T19:41:43.994Z,98521.09
2022-10-29T19:44:12.678Z,98513.19
2022-10-29T19:46:42.250Z,98518.88
2022-10-29T19:49:11.368Z,98522.53
2022-10-29T19:51:43.420Z,98522.13
2022-10-29T19:54:13.040Z,98519.47
2022-10-29T19:56:41.727Z,98518.66
2022-10-29T19:59:10.602Z,98520.63
2022-10-29T20:01:41.945Z,98521.44
2022-10-29T20:04:10.749Z,98523.06
2022-10-29T20:06:41.141Z,98518.22
2022-10-29T20:09:09.689Z,98514.75
2022-10-29T20:11:38.732Z,98520.63
2022-10-29T20:14:07.388Z,98520.00
2022-10-29T20:16:36.364Z,98512.09
2022-10-29T20:19:05.709Z,98512.69
2022-10-29T20:21:34.632Z,98515.91
2022-10-29T20:24:05.346Z,98513.50
2022-10-29T20:26:33.965Z,98505.78
2022-10-29T20:29:02.565Z,98510.25
2022-10-29T20:31:37.205Z,98504.16
2022-10-29T20:34:11.054Z,98510.84
2022-10-29T20:36:39.786Z,98509.81
2022-10-29T20:39:13.282Z,98509.63
2022-10-29T20:41:42.284Z,98516.06
2022-10-29T20:44:11.536Z,98508.16
2022-10-29T20:46:43.521Z,98509.78
2022-10-29T20:49:12.496Z,98501.06
2022-10-29T20:51:41.087Z,98503.09
2022-10-29T20:54:11.250Z,98504.50
2022-10-29T20:56:40.591Z,98509.94
2022-10-29T20:59:09.448Z,98507.94
2022-10-29T21:01:38.122Z,98507.13
2022-10-29T21:04:06.959Z,98503.69
2022-10-29T21:06:35.611Z,98507.94
2022-10-29T21:09:04.255Z,98501.88
2022-10-29T21:11:34.285Z,98507.72
2022-10-29T21:14:03.097Z,98506.72
2022-10-29T21:16:32.072Z,98513.59
2022-10-29T21:19:03.294Z,98505.91
2022-10-29T21:21:32.144Z,98506.72
2022-10-29T21:24:01.964Z,98510.13
2022-10-29T21:26:31.434Z,98510.72
2022-10-29T21:29:01.831Z,98509.47
2022-10-29T21:31:31.040Z,98515.94
2022-10-29T21:33:59.611Z,98515.94
2022-10-29T21:36:28.237Z,98510.69
2022-10-29T21:38:57.385Z,98502.19
2022-10-29T21:41:26.149Z,98512.06
2022-10-29T21:43:55.115Z,98511.06
2022-10-29T21:46:26.065Z,98506.81
2022-10-29T21:48:56.949Z,98506.81
2022-10-29T21:51:25.605Z,98510.44
2022-10-29T21:53:54.479Z,98522.38
2022-10-29T21:56:23.081Z,98515.88
2022-10-29T21:58:52.864Z,98516.47
2022-10-29T22:01:22.710Z,98506.59
2022-10-29T22:03:53.286Z,98515.47
2022-10-29T22:06:25.866Z,98508.97
2022-10-29T22:08:57.358Z,98516.25
2022-10-29T22:11:28.530Z,98515.84
2022-10-29T22:13:57.427Z,98515.84
2022-10-29T22:16:25.961Z,98523.50
2022-10-29T22:18:56.470Z,98523.09
2022-10-29T22:21:27.253Z,98528.16
2022-10-29T22:23:59.903Z,98520.66
2022-10-29T22:26:31.150Z,98519.81
2022-10-29T22:28:59.693Z,98526.06
2022-10-29T22:31:28.503Z,98525.44
2022-10-29T22:33:59.163Z,98518.19
2022-10-29T22:36:28.835Z,98514.56
2022-10-29T22:38:59.341Z,98524.25
2022-10-29T22:41:30.298Z,98525.44
2022-10-29T22:44:00.132Z,98521.19
2022-10-29T22:46:31.357Z,98518.56
2022-10-29T22:49:03.184Z,98512.69
2022-10-29T22:51:34.114Z,98515.31
2022-10-29T22:54:03.921Z,98512.47
2022-10-29T22:56:36.245Z,98511.22
2022-10-29T22:59:06.809Z,98511.22
2022-10-29T23:01:42.124Z,98500.72
2022-10-29T23:04:15.752Z,98493.81
2022-10-29T23:06:44.436Z,98491.03
2022-10-29T23:09:12.940Z,98500.72
2022-10-29T23:11:42.258Z,98494.03
2022-10-29T23:14:10.974Z,98496.03
2022-10-29T23:16:39.573Z,98483.72
2022-10-29T23:19:08.274Z,98491.41
2022-10-29T23:21:38.552Z,98484.47
2022-10-29T23:24:08.053Z,98487.09
2022-10-29T23:26:36.650Z,98485.66
2022-10-29T23:29:06.074Z,98493.31
2022-10-29T23:31:35.610Z,98494.97
2022-10-29T23:34:04.096Z,98489.72
2022-10-29T23:36:32.681Z,98488.28
2022-10-29T23:39:04.067Z,98493.72
2022-10-29T23:41:33.149Z,98493.72
2022-10-29T23:44:02.419Z,98494.28
2022-10-29T23:46:30.938Z,98499.09
2022-10-29T23:49:00.432Z,98495.88
2022-10-29T23:51:29.021Z,98492.25
2022-10-29T23:53:58.263Z,98482.91
2022-10-29T23:56:28.899Z,98487.56
2022-10-29T23:58:59.019Z,98485.94
